createdAt,value
2018-09-18T00:02:39.509Z,101311.22
2018-09-18T00:05:43.706Z,101303.73
2018-09-18T00:08:47.937Z,101310.14
2018-09-18T00:11:52.128Z,101298.55
2018-09-18T00:14:56.357Z,101295.97
2018-09-18T00:18:00.539Z,101299.38
2018-09-18T00:21:04.743Z,101302.53
2018-09-18T00:24:08.961Z,101299.66
2018-09-18T00:27:13.172Z,101295.74
2018-09-18T00:30:17.373Z,101290.43
2018-09-18T00:33:21.585Z,101294.19
2018-09-18T00:36:25.803Z,101299.27
2018-09-18T00:39:30.029Z,101284.63
2018-09-18T00:42:34.216Z,101283.73
2018-09-18T00:45:38.424Z,101275.72
2018-09-18T00:48:42.660Z,101275.57
2018-09-18T00:51:46.866Z,101277.69
2018-09-18T00:54:51.095Z,101272.41
2018-09-18T00:57:55.441Z,101270.66
2018-09-18T01:00:59.637Z,101264.30
2018-09-18T01:04:03.830Z,101268.81
2018-09-18T01:07:08.156Z,101259.86
2018-09-18T01:10:12.358Z,101254.05
2018-09-18T01:13:16.577Z,101256.41
2018-09-18T01:16:20.768Z,101257.09
2018-09-18T01:19:24.990Z,101259.39
2018-09-18T01:22:29.209Z,101252.94
2018-09-18T01:25:33.459Z,101249.24
2018-09-18T01:28:37.824Z,101253.19
2018-09-18T01:31:42.025Z,101248.94
2018-09-18T01:34:46.222Z,101244.46
2018-09-18T01:37:50.546Z,101240.31
2018-09-18T01:40:55.369Z,101239.28
2018-09-18T01:43:59.580Z,101243.77
2018-09-18T01:47:04.841Z,101242.56
2018-09-18T01:50:09.055Z,101245.36
2018-09-18T01:53:13.252Z,101229.98
2018-09-18T01:56:17.490Z,101230.20
2018-09-18T01:59:21.932Z,101228.45
2018-09-18T02:02:26.165Z,101231.64
2018-09-18T02:05:30.397Z,101226.64
2018-09-18T02:08:34.601Z,101229.82
2018-09-18T02:11:38.824Z,101225.66
2018-09-18T02:14:43.024Z,101221.48
2018-09-18T02:17:47.261Z,101221.13
2018-09-18T02:20:51.482Z,101214.73
2018-09-18T02:23:55.689Z,101216.55
2018-09-18T02:26:59.905Z,101217.55
2018-09-18T02:30:04.148Z,101216.41
2018-09-18T02:33:08.353Z,101201.88
2018-09-18T02:36:12.577Z,101202.10
2018-09-18T02:39:16.800Z,101201.71
2018-09-18T02:42:21.796Z,101198.08
2018-09-18T02:45:26.026Z,101201.84
2018-09-18T02:48:31.331Z,101195.25
2018-09-18T02:51:35.512Z,101184.58
2018-09-18T02:54:39.739Z,101182.41
2018-09-18T02:57:43.947Z,101174.36
2018-09-18T03:00:48.176Z,101173.73
2018-09-18T03:03:52.389Z,101175.27
2018-09-18T03:06:56.616Z,101172.98
2018-09-18T03:10:00.841Z,101172.70
2018-09-18T03:13:05.032Z,101163.61
2018-09-18T03:16:09.317Z,101162.70
2018-09-18T03:19:13.512Z,101161.23
2018-09-18T03:22:17.701Z,101158.97
2018-09-18T03:25:21.888Z,101160.03
2018-09-18T03:28:26.093Z,101152.91
2018-09-18T03:31:30.325Z,101150.17
2018-09-18T03:34:34.521Z,101137.41
2018-09-18T03:37:38.732Z,101142.33
2018-09-18T03:40:42.950Z,101144.21
2018-09-18T03:43:47.156Z,101139.28
2018-09-18T03:46:51.365Z,101146.02
2018-09-18T03:49:55.603Z,101135.58
2018-09-18T03:52:59.801Z,101129.00
2018-09-18T03:56:04.013Z,101127.24
2018-09-18T03:59:08.228Z,101127.17
2018-09-18T04:02:12.453Z,101118.09
2018-09-18T04:05:16.653Z,101116.41
2018-09-18T04:08:20.888Z,101119.91
2018-09-18T04:11:25.106Z,101112.60
2018-09-18T04:14:29.325Z,101115.25
2018-09-18T04:17:33.629Z,101107.09
2018-09-18T04:20:37.864Z,101105.50
2018-09-18T04:23:42.064Z,101099.22
2018-09-18T04:26:46.277Z,101104.89
2018-09-18T04:29:50.487Z,101098.86
2018-09-18T04:32:54.697Z,101097.39
2018-09-18T04:35:58.920Z,101099.53
2018-09-18T04:39:03.141Z,101095.12
2018-09-18T04:42:07.409Z,101093.75
2018-09-18T04:45:11.609Z,101098.61
2018-09-18T04:48:15.829Z,101092.33
2018-09-18T04:51:20.090Z,101086.75
2018-09-18T04:54:24.301Z,101082.38
2018-09-18T04:57:28.521Z,101082.38
2018-09-18T05:00:32.711Z,101086.45
2018-09-18T05:03:37.073Z,101080.39
2018-09-18T05:06:41.288Z,101074.66
2018-09-18T05:09:45.490Z,101074.36
2018-09-18T05:12:49.713Z,101081.69
2018-09-18T05:15:53.938Z,101082.53
2018-09-18T05:18:58.208Z,101086.06
2018-09-18T05:22:02.420Z,101077.37
2018-09-18T05:25:07.245Z,101082.38
2018-09-18T05:28:11.599Z,101084.45
2018-09-18T05:31:15.840Z,101080.70
2018-09-18T05:34:20.061Z,101088.64
2018-09-18T05:37:24.264Z,101083.78
2018-09-18T05:40:28.458Z,101083.33
2018-09-18T05:43:32.680Z,101080.77
2018-09-18T05:46:37.320Z,101076.56
2018-09-18T05:49:41.509Z,101073.98
2018-09-18T05:52:45.760Z,101073.00
2018-09-18T05:55:49.973Z,101074.30
2018-09-18T05:58:54.177Z,101078.61
2018-09-18T06:01:58.929Z,101074.17
2018-09-18T06:05:03.130Z,101071.12
2018-09-18T06:08:07.357Z,101071.44
2018-09-18T06:11:11.576Z,101068.98
2018-09-18T06:14:15.770Z,101068.45
2018-09-18T06:17:19.996Z,101063.06
2018-09-18T06:20:24.192Z,101066.38
2018-09-18T06:23:29.938Z,101068.33
2018-09-18T06:26:34.165Z,101062.60
2018-09-18T06:29:38.492Z,101061.08
2018-09-18T06:32:42.696Z,101060.57
2018-09-18T06:35:46.930Z,101059.53
2018-09-18T06:38:51.124Z,101048.69
2018-09-18T06:41:55.337Z,101052.30
2018-09-18T06:44:59.574Z,101053.45
2018-09-18T06:48:03.855Z,101039.84
2018-09-18T06:51:08.059Z,101045.11
2018-09-18T06:54:12.261Z,101040.08
2018-09-18T06:57:16.473Z,101042.09
2018-09-18T07:00:20.678Z,101044.88
2018-09-18T07:03:24.881Z,101040.27
2018-09-18T07:06:29.095Z,101032.30
2018-09-18T07:09:33.325Z,101033.19
2018-09-18T07:12:37.548Z,101031.52
2018-09-18T07:15:41.740Z,101029.28
2018-09-18T07:18:45.966Z,101028.09
2018-09-18T07:21:50.181Z,101022.84
2018-09-18T07:24:54.495Z,101019.80
2018-09-18T07:27:58.602Z,101024.71
2018-09-18T07:31:02.829Z,101023.87
2018-09-18T07:34:07.132Z,101020.23
2018-09-18T07:37:11.353Z,101016.86
2018-09-18T07:40:15.585Z,101020.65
2018-09-18T07:43:19.864Z,101023.34
2018-09-18T07:46:24.099Z,101020.48
2018-09-18T07:49:28.318Z,101014.06
2018-09-18T07:52:32.550Z,101012.03
2018-09-18T07:55:36.798Z,101007.23
2018-09-18T07:58:41.004Z,101002.80
2018-09-18T08:01:45.217Z,100998.77
2018-09-18T08:04:49.417Z,100997.50
2018-09-18T08:07:53.612Z,100994.52
2018-09-18T08:10:57.870Z,100997.36
2018-09-18T08:14:02.057Z,101002.17
2018-09-18T08:17:06.770Z,101001.11
2018-09-18T08:20:11.037Z,100992.34
2018-09-18T08:23:15.272Z,100994.02
2018-09-18T08:26:19.463Z,100992.39
2018-09-18T08:29:23.702Z,100983.28
2018-09-18T08:32:28.007Z,100977.80
2018-09-18T08:35:32.218Z,100979.96
2018-09-18T08:38:36.612Z,100976.09
2018-09-18T08:41:40.813Z,100975.53
2018-09-18T08:44:45.021Z,100971.05
2018-09-18T08:47:49.262Z,100977.39
2018-09-18T08:50:53.478Z,100969.05
2018-09-18T08:53:57.733Z,100962.64
2018-09-18T08:57:02.043Z,100967.50
2018-09-18T09:00:07.064Z,100962.19
2018-09-18T09:03:11.277Z,100963.19
2018-09-18T09:06:15.529Z,100961.14
2018-09-18T09:09:19.775Z,100958.02
2018-09-18T09:12:24.000Z,100951.91
2018-09-18T09:15:28.330Z,100951.55
2018-09-18T09:18:32.674Z,100952.77
2018-09-18T09:21:36.805Z,100944.90
2018-09-18T09:24:41.141Z,100946.74
2018-09-18T09:27:45.425Z,100939.72
2018-09-18T09:30:49.634Z,100939.63
2018-09-18T09:33:53.855Z,100931.86
2018-09-18T09:36:58.951Z,100925.94
2018-09-18T09:40:03.145Z,100921.08
2018-09-18T09:43:07.349Z,100920.78
2018-09-18T09:46:11.572Z,100918.20
2018-09-18T09:49:15.817Z,100913.71
2018-09-18T09:52:20.040Z,100917.00
2018-09-18T09:55:24.296Z,100903.89
2018-09-18T09:58:28.526Z,100905.72
2018-09-18T10:01:47.741Z,100899.49
2018-09-18T10:04:51.949Z,100890.84
2018-09-18T10:07:56.158Z,100897.47
2018-09-18T10:11:00.410Z,100893.69
2018-09-18T10:14:04.632Z,100883.02
2018-09-18T10:17:08.838Z,100883.39
2018-09-18T10:20:13.053Z,100879.66
2018-09-18T10:23:17.254Z,100873.73
2018-09-18T10:26:21.624Z,100871.48
2018-09-18T10:29:25.687Z,100865.58
2018-09-18T10:32:30.059Z,100862.94
2018-09-18T10:35:34.284Z,100861.96
2018-09-18T10:38:38.516Z,100856.36
2018-09-18T10:41:42.732Z,100847.17
2018-09-18T10:44:46.938Z,100850.42
2018-09-18T10:47:51.146Z,100843.64
2018-09-18T10:50:55.381Z,100842.16
2018-09-18T10:53:59.595Z,100837.00
2018-09-18T10:57:03.819Z,100830.58
2018-09-18T11:00:08.704Z,100833.26
2018-09-18T11:03:12.936Z,100829.94
2018-09-18T11:06:17.109Z,100827.20
2018-09-18T11:09:21.364Z,100809.01
2018-09-18T11:12:25.575Z,100816.92
2018-09-18T11:15:29.947Z,100821.18
2018-09-18T11:18:34.174Z,100818.53
2018-09-18T11:21:41.677Z,100817.72
2018-09-18T11:24:45.921Z,100800.07
2018-09-18T11:27:50.082Z,100804.68
2018-09-18T11:30:54.277Z,100798.29
2018-09-18T11:33:58.496Z,100800.67
2018-09-18T11:37:02.702Z,100800.55
2018-09-18T11:40:06.913Z,100798.88
2018-09-18T11:43:11.108Z,100798.11
2018-09-18T11:46:15.301Z,100790.44
2018-09-18T11:49:19.493Z,100789.99
2018-09-18T11:52:23.741Z,100796.26
2018-09-18T11:55:27.960Z,100783.63
2018-09-18T11:58:32.301Z,100784.75
2018-09-18T12:01:36.405Z,100779.09
2018-09-18T12:04:40.767Z,100773.63
2018-09-18T12:07:44.845Z,100774.80
2018-09-18T12:10:49.058Z,100779.52
2018-09-18T12:13:53.272Z,100768.88
2018-09-18T12:16:57.495Z,100761.30
2018-09-18T12:20:01.713Z,100768.22
2018-09-18T12:23:05.929Z,100754.76
2018-09-18T12:26:10.149Z,100763.11
2018-09-18T12:29:14.348Z,100757.56
2018-09-18T12:32:18.566Z,100758.70
2018-09-18T12:35:22.842Z,100757.31
2018-09-18T12:38:27.008Z,100753.11
2018-09-18T12:41:31.308Z,100748.20
2018-09-18T12:44:35.505Z,100743.42
2018-09-18T12:47:40.455Z,100742.27
2018-09-18T12:50:44.707Z,100734.73
2018-09-18T12:53:48.969Z,100724.14
2018-09-18T12:56:53.168Z,100723.14
2018-09-18T12:59:57.449Z,100722.25
2018-09-18T13:03:01.589Z,100718.72
2018-09-18T13:06:05.899Z,100709.19
2018-09-18T13:09:11.906Z,100710.24
2018-09-18T13:12:16.121Z,100706.09
2018-09-18T13:15:20.360Z,100697.55
2018-09-18T13:18:24.641Z,100696.25
2018-09-18T13:21:28.848Z,100689.51
2018-09-18T13:24:33.082Z,100684.37
2018-09-18T13:27:37.369Z,100694.34
2018-09-18T13:30:41.605Z,100691.89
2018-09-18T13:33:45.864Z,100680.05
2018-09-18T13:36:50.080Z,100689.11
2018-09-18T13:39:54.297Z,100689.41
2018-09-18T13:42:58.492Z,100689.56
2018-09-18T13:46:02.746Z,100693.47
2018-09-18T13:49:06.999Z,100694.19
2018-09-18T13:52:11.230Z,100694.30
2018-09-18T13:55:15.455Z,100688.29
2018-09-18T13:58:19.707Z,100697.16
2018-09-18T14:01:23.993Z,100687.64
2018-09-18T14:04:28.268Z,100691.55
2018-09-18T14:07:32.368Z,100690.17
2018-09-18T14:10:36.621Z,100687.74
2018-09-18T14:13:40.846Z,100677.76
2018-09-18T14:16:45.065Z,100689.56
2018-09-18T14:19:49.281Z,100686.44
2018-09-18T14:22:53.510Z,100687.63
2018-09-18T14:25:57.766Z,100680.19
2018-09-18T14:29:02.003Z,100691.30
2018-09-18T14:32:06.213Z,100680.61
2018-09-18T14:35:10.477Z,100695.41
2018-09-18T14:38:14.793Z,100688.33
2018-09-18T14:41:18.993Z,100689.47
2018-09-18T14:44:23.197Z,100689.34
2018-09-18T14:47:28.418Z,100683.08
2018-09-18T14:50:32.649Z,100683.53
2018-09-18T14:53:36.919Z,100681.55
2018-09-18T14:56:41.151Z,100688.42
2018-09-18T14:59:45.385Z,100692.48
2018-09-18T15:02:49.609Z,100711.08
2018-09-18T15:05:53.861Z,100736.70
2018-09-18T15:08:58.065Z,100733.24
2018-09-18T15:12:02.331Z,100749.34
2018-09-18T15:15:06.520Z,100756.40
2018-09-18T15:18:10.751Z,100758.86
2018-09-18T15:21:14.950Z,100770.92
2018-09-18T15:24:19.301Z,100784.30
2018-09-18T15:27:23.561Z,100791.06
2018-09-18T15:30:27.756Z,100798.55
2018-09-18T15:33:32.203Z,100806.37
2018-09-18T15:36:36.389Z,100819.53
2018-09-18T15:39:40.691Z,100824.93
2018-09-18T15:42:44.850Z,100826.02
2018-09-18T15:45:49.083Z,100826.42
2018-09-18T15:48:53.265Z,100830.56
2018-09-18T15:51:57.551Z,100845.31
2018-09-18T15:55:01.809Z,100831.39
2018-09-18T15:58:06.038Z,100838.81
2018-09-18T16:01:10.257Z,100846.16
2018-09-18T16:04:14.465Z,100847.42
2018-09-18T16:07:18.689Z,100855.72
2018-09-18T16:10:22.925Z,100860.19
2018-09-18T16:13:27.137Z,100865.52
2018-09-18T16:16:31.437Z,100864.53
2018-09-18T16:19:35.624Z,100864.59
2018-09-18T16:22:39.910Z,100872.69
2018-09-18T16:25:44.088Z,100894.59
2018-09-18T16:28:48.313Z,100897.12
2018-09-18T16:31:52.553Z,100887.81
2018-09-18T16:34:56.816Z,100889.19
2018-09-18T16:38:01.029Z,100899.35
2018-09-18T16:41:05.421Z,100897.03
2018-09-18T16:44:09.628Z,100906.08
2018-09-18T16:47:13.860Z,100906.47
2018-09-18T16:50:18.057Z,100915.99
2018-09-18T16:53:22.290Z,100919.75
2018-09-18T16:56:26.489Z,100905.97
2018-09-18T16:59:30.717Z,100914.63
2018-09-18T17:02:34.953Z,100911.94
2018-09-18T17:05:39.157Z,100908.67
2018-09-18T17:08:43.365Z,100914.30
2018-09-18T17:11:47.560Z,100920.17
2018-09-18T17:14:51.746Z,100923.25
2018-09-18T17:17:55.991Z,100925.50
2018-09-18T17:21:00.197Z,100916.67
2018-09-18T17:24:04.489Z,100912.03
2018-09-18T17:27:08.705Z,100927.01
2018-09-18T17:30:12.940Z,100925.63
2018-09-18T17:33:17.174Z,100930.91
2018-09-18T17:36:21.415Z,100937.03
2018-09-18T17:39:25.603Z,100942.56
2018-09-18T17:42:29.962Z,100949.51
2018-09-18T17:45:34.173Z,100946.19
2018-09-18T17:48:38.380Z,100957.51
2018-09-18T17:51:42.584Z,100958.87
2018-09-18T17:54:46.816Z,100955.61
2018-09-18T17:57:51.033Z,100957.81
2018-09-18T18:00:55.251Z,100954.50
2018-09-18T18:03:59.565Z,100962.81
2018-09-18T18:07:03.798Z,100971.09
2018-09-18T18:10:08.060Z,100967.77
2018-09-18T18:13:12.284Z,100972.49
2018-09-18T18:16:16.494Z,100970.84
2018-09-18T18:19:20.717Z,100981.05
2018-09-18T18:22:24.950Z,100980.22
2018-09-18T18:25:29.157Z,100980.52
2018-09-18T18:28:33.372Z,100986.31
2018-09-18T18:31:37.582Z,100991.84
2018-09-18T18:34:41.766Z,100996.81
2018-09-18T18:37:45.974Z,101002.59
2018-09-18T18:40:50.225Z,100999.56
2018-09-18T18:43:54.385Z,101001.77
2018-09-18T18:46:58.630Z,101004.27
2018-09-18T18:50:02.860Z,101005.63
2018-09-18T18:53:07.056Z,100999.59
2018-09-18T18:56:11.297Z,100998.19
2018-09-18T18:59:15.503Z,101004.00
2018-09-18T19:02:19.730Z,101001.52
2018-09-18T19:05:23.945Z,101011.16
2018-09-18T19:08:28.198Z,101003.70
2018-09-18T19:11:32.420Z,101005.63
2018-09-18T19:14:36.673Z,101003.73
2018-09-18T19:17:40.940Z,101022.46
2018-09-18T19:20:45.311Z,101012.80
2018-09-18T19:23:49.594Z,101017.22
2018-09-18T19:26:53.814Z,101013.88
2018-09-18T19:29:58.088Z,101024.06
2018-09-18T19:33:02.406Z,101016.08
2018-09-18T19:36:06.698Z,101022.44
2018-09-18T19:39:12.011Z,101015.54
2018-09-18T19:42:16.351Z,101022.70
2018-09-18T19:45:20.625Z,101019.39
2018-09-18T19:48:24.876Z,101015.25
2018-09-18T19:51:29.086Z,101024.87
2018-09-18T19:54:33.316Z,101034.52
2018-09-18T19:57:37.770Z,101030.39
2018-09-18T20:00:42.008Z,101038.09
2018-09-18T20:03:46.223Z,101036.16
2018-09-18T20:06:50.421Z,101052.12
2018-09-18T20:09:54.677Z,101049.09
2018-09-18T20:12:58.876Z,101050.72
2018-09-18T20:16:04.253Z,101043.30
2018-09-18T20:19:08.452Z,101056.50
2018-09-18T20:22:12.688Z,101054.05
2018-09-18T20:25:16.913Z,101055.97
2018-09-18T20:28:21.110Z,101057.61
2018-09-18T20:31:25.305Z,101060.94
2018-09-18T20:34:29.561Z,101062.85
2018-09-18T20:37:33.762Z,101057.05
2018-09-18T20:40:37.984Z,101064.20
2018-09-18T20:43:42.173Z,101060.62
2018-09-18T20:46:46.389Z,101060.62
2018-09-18T20:49:50.613Z,101068.34
2018-09-18T20:52:55.845Z,101058.14
2018-09-18T20:56:00.173Z,101058.67
2018-09-18T20:59:04.378Z,101054.55
2018-09-18T21:02:08.610Z,101063.08
2018-09-18T21:05:12.810Z,101064.97
2018-09-18T21:08:17.037Z,101068.00
2018-09-18T21:11:21.260Z,101069.38
2018-09-18T21:14:25.482Z,101075.95
2018-09-18T21:17:29.708Z,101076.80
2018-09-18T21:20:33.904Z,101077.87
2018-09-18T21:23:38.118Z,101072.94
2018-09-18T21:26:42.336Z,101076.50
2018-09-18T21:29:46.536Z,101081.44
2018-09-18T21:32:51.539Z,101074.55
2018-09-18T21:35:55.737Z,101077.81
2018-09-18T21:38:59.965Z,101081.64
2018-09-18T21:42:04.209Z,101075.84
2018-09-18T21:45:08.433Z,101074.70
2018-09-18T21:48:12.645Z,101082.68
2018-09-18T21:51:16.854Z,101077.14
2018-09-18T21:54:21.080Z,101067.78
2018-09-18T21:57:25.269Z,101071.34
2018-09-18T22:00:29.597Z,101078.22
2018-09-18T22:03:34.786Z,101075.16
2018-09-18T22:06:39.022Z,101074.85
2018-09-18T22:09:43.308Z,101080.87
2018-09-18T22:12:47.659Z,101084.13
2018-09-18T22:15:51.896Z,101088.52
2018-09-18T22:18:56.087Z,101094.81
2018-09-18T22:22:00.297Z,101095.12
2018-09-18T22:25:04.556Z,101099.47
2018-09-18T22:28:08.760Z,101094.23
2018-09-18T22:31:12.968Z,101092.86
2018-09-18T22:34:17.196Z,101107.71
2018-09-18T22:37:21.424Z,101107.71
2018-09-18T22:40:25.621Z,101105.23
2018-09-18T22:43:29.923Z,101104.34
2018-09-18T22:46:34.086Z,101098.84
2018-09-18T22:49:38.308Z,101097.45
2018-09-18T22:52:42.537Z,101101.27
2018-09-18T22:55:46.791Z,101107.83
2018-09-18T22:58:51.016Z,101102.06
2018-09-18T23:01:55.217Z,101105.86
2018-09-18T23:04:59.444Z,101108.30
2018-09-18T23:08:03.652Z,101113.75
2018-09-18T23:11:07.889Z,101114.05
2018-09-18T23:14:12.109Z,101117.64
2018-09-18T23:17:17.169Z,101115.10
2018-09-18T23:20:21.392Z,101130.22
2018-09-18T23:23:25.680Z,101131.52
2018-09-18T23:26:29.896Z,101131.59
2018-09-18T23:29:34.122Z,101124.14
2018-09-18T23:32:38.332Z,101127.16
2018-09-18T23:35:42.555Z,101130.48
2018-09-18T23:38:46.768Z,101129.64
2018-09-18T23:41:50.996Z,101126.62
2018-09-18T23:44:55.210Z,101119.14
2018-09-18T23:47:59.421Z,101122.94
2018-09-18T23:51:03.646Z,101128.70
2018-09-18T23:54:07.985Z,101139.69
2018-09-18T23:57:12.182Z,101140.20
